sensor_id;sensor_type;location;lat;lon;timestamp;pressure;altitude;pressure_sealevel;temperature;humidity
73171;BME280;61381;50.118;19.962;2023-10-13T00:00:18;98557.47;;;19.35;100.00
73171;BME280;61381;50.118;19.962;2023-10-13T00:05:39;98564.72;;;19.06;100.00
73171;BME280;61381;50.118;19.962;2023-10-13T00:10:40;98557.59;;;19.26;100.00
73171;BME280;61381;50.118;19.962;2023-10-13T00:15:44;98560.78;;;19.28;100.00
73171;BME280;61381;50.118;19.962;2023-10-13T00:20:45;98558.16;;;19.32;100.00
73171;BME280;61381;50.118;19.962;2023-10-13T00:25:47;98565.28;;;19.24;100.00
73171;BME280;61381;50.118;19.962;2023-10-13T00:30:50;98560.75;;;19.40;100.00
73171;BME280;61381;50.118;19.962;2023-10-13T00:35:51;98564.38;;;19.45;100.00
73171;BME280;61381;50.118;19.962;2023-10-13T00:40:52;98555.88;;;19.46;100.00
73171;BME280;61381;50.118;19.962;2023-10-13T00:45:55;98557.13;;;19.49;100.00
73171;BME280;61381;50.118;19.962;2023-10-13T00:50:57;98551.81;;;19.28;100.00
73171;BME280;61381;50.118;19.962;2023-10-13T00:55:58;98554.88;;;19.38;100.00
73171;BME280;61381;50.118;19.962;2023-10-13T01:01:01;98554.19;;;19.29;100.00
73171;BME280;61381;50.118;19.962;2023-10-13T01:06:02;98554.75;;;19.35;100.00
73171;BME280;61381;50.118;19.962;2023-10-13T01:11:03;98542.44;;;19.25;100.00
73171;BME280;61381;50.118;19.962;2023-10-13T01:16:05;98529.41;;;18.94;100.00
73171;BME280;61381;50.118;19.962;2023-10-13T01:21:06;98520.34;;;19.02;100.00
73171;BME280;61381;50.118;19.962;2023-10-13T01:26:08;98514.34;;;18.84;100.00
73171;BME280;61381;50.118;19.962;2023-10-13T01:31:10;98525.28;;;18.63;100.00
73171;BME280;61381;50.118;19.962;2023-10-13T01:36:11;98520.09;;;18.58;100.00
73171;BME280;61381;50.118;19.962;2023-10-13T01:41:13;98521.09;;;18.53;100.00
73171;BME280;61381;50.118;19.962;2023-10-13T01:46:14;98528.41;;;18.40;100.00
73171;BME280;61381;50.118;19.962;2023-10-13T01:51:15;98531.91;;;18.41;100.00
73171;BME280;61381;50.118;19.962;2023-10-13T01:56:17;98528.63;;;18.35;100.00
73171;BME280;61381;50.118;19.962;2023-10-13T02:01:18;98530.22;;;18.03;100.00
73171;BME280;61381;50.118;19.962;2023-10-13T02:06:19;98516.44;;;17.87;100.00
73171;BME280;61381;50.118;19.962;2023-10-13T02:11:21;98508.31;;;17.65;100.00
73171;BME280;61381;50.118;19.962;2023-10-13T02:16:22;98517.31;;;17.99;100.00
73171;BME280;61381;50.118;19.962;2023-10-13T02:21:23;98517.56;;;17.86;100.00
73171;BME280;61381;50.118;19.962;2023-10-13T02:26:25;98507.09;;;18.17;100.00
73171;BME280;61381;50.118;19.962;2023-10-13T02:31:27;98504.47;;;18.09;100.00
73171;BME280;61381;50.118;19.962;2023-10-13T02:36:28;98508.06;;;17.79;100.00
73171;BME280;61381;50.118;19.962;2023-10-13T02:41:30;98509.38;;;17.52;100.00
73171;BME280;61381;50.118;19.962;2023-10-13T02:46:31;98502.41;;;17.42;100.00
73171;BME280;61381;50.118;19.962;2023-10-13T02:51:32;98495.81;;;17.31;100.00
73171;BME280;61381;50.118;19.962;2023-10-13T02:56:34;98503.44;;;17.08;100.00
73171;BME280;61381;50.118;19.962;2023-10-13T03:01:35;98507.50;;;17.23;100.00
73171;BME280;61381;50.118;19.962;2023-10-13T03:06:36;98515.94;;;16.91;100.00
73171;BME280;61381;50.118;19.962;2023-10-13T03:11:39;98517.38;;;16.89;100.00
73171;BME280;61381;50.118;19.962;2023-10-13T03:16:39;98502.59;;;16.86;100.00
73171;BME280;61381;50.118;19.962;2023-10-13T03:21:40;98509.59;;;16.79;100.00
73171;BME280;61381;50.118;19.962;2023-10-13T03:26:42;98520.84;;;16.51;100.00
73171;BME280;61381;50.118;19.962;2023-10-13T03:31:43;98514.66;;;16.89;100.00
73171;BME280;61381;50.118;19.962;2023-10-13T03:36:44;98519.13;;;17.23;100.00
73171;BME280;61381;50.118;19.962;2023-10-13T03:41:46;98524.19;;;17.25;100.00
73171;BME280;61381;50.118;19.962;2023-10-13T03:46:47;98532.59;;;17.32;100.00
73171;BME280;61381;50.118;19.962;2023-10-13T03:51:48;98532.94;;;17.52;100.00
73171;BME280;61381;50.118;19.962;2023-10-13T03:56:50;98533.34;;;17.41;100.00
73171;BME280;61381;50.118;19.962;2023-10-13T04:01:51;98524.72;;;17.18;100.00
73171;BME280;61381;50.118;19.962;2023-10-13T04:06:52;98529.78;;;17.50;100.00
73171;BME280;61381;50.118;19.962;2023-10-13T04:11:54;98535.88;;;17.68;100.00
73171;BME280;61381;50.118;19.962;2023-10-13T04:16:55;98538.97;;;17.57;100.00
73171;BME280;61381;50.118;19.962;2023-10-13T04:21:56;98522.66;;;17.66;100.00
73171;BME280;61381;50.118;19.962;2023-10-13T04:26:58;98525.09;;;17.80;100.00
73171;BME280;61381;50.118;19.962;2023-10-13T04:31:59;98520.66;;;17.54;100.00
73171;BME280;61381;50.118;19.962;2023-10-13T04:37:00;98523.22;;;17.29;100.00
73171;BME280;61381;50.118;19.962;2023-10-13T04:42:02;98523.84;;;17.35;100.00
73171;BME280;61381;50.118;19.962;2023-10-13T04:47:03;98545.03;;;17.54;100.00
73171;BME280;61381;50.118;19.962;2023-10-13T04:52:05;98541.53;;;17.33;100.00
73171;BME280;61381;50.118;19.962;2023-10-13T04:57:07;98548.53;;;17.34;100.00
73171;BME280;61381;50.118;19.962;2023-10-13T05:02:08;98551.81;;;17.39;100.00
73171;BME280;61381;50.118;19.962;2023-10-13T05:07:09;98549.34;;;17.25;100.00
73171;BME280;61381;50.118;19.962;2023-10-13T05:12:11;98552.84;;;17.56;100.00
73171;BME280;61381;50.118;19.962;2023-10-13T05:17:12;98557.41;;;17.85;100.00
73171;BME280;61381;50.118;19.962;2023-10-13T05:22:13;98556.44;;;17.90;100.00
73171;BME280;61381;50.118;19.962;2023-10-13T05:27:15;98567.16;;;18.41;100.00
73171;BME280;61381;50.118;19.962;2023-10-13T05:32:16;98580.69;;;18.28;100.00
73171;BME280;61381;50.118;19.962;2023-10-13T05:37:17;98586.63;;;18.43;100.00
73171;BME280;61381;50.118;19.962;2023-10-13T05:42:19;98588.81;;;18.62;100.00
73171;BME280;61381;50.118;19.962;2023-10-13T05:47:20;98596.47;;;18.47;100.00
73171;BME280;61381;50.118;19.962;2023-10-13T05:52:21;98585.44;;;18.65;100.00
73171;BME280;61381;50.118;19.962;2023-10-13T05:57:23;98576.47;;;18.85;100.00
73171;BME280;61381;50.118;19.962;2023-10-13T06:02:24;98592.66;;;19.06;100.00
73171;BME280;61381;50.118;19.962;2023-10-13T06:07:25;98586.78;;;19.17;100.00
73171;BME280;61381;50.118;19.962;2023-10-13T06:12:27;98581.25;;;19.38;99.89
73171;BME280;61381;50.118;19.962;2023-10-13T06:17:28;98583.97;;;19.25;99.59
73171;BME280;61381;50.118;19.962;2023-10-13T06:22:29;98578.09;;;19.36;99.90
73171;BME280;61381;50.118;19.962;2023-10-13T06:27:31;98587.94;;;19.40;99.21
73171;BME280;61381;50.118;19.962;2023-10-13T06:32:32;98607.84;;;19.45;98.35
73171;BME280;61381;50.118;19.962;2023-10-13T06:37:33;98596.09;;;19.40;100.00
73171;BME280;61381;50.118;19.962;2023-10-13T06:42:35;98605.81;;;19.17;100.00
73171;BME280;61381;50.118;19.962;2023-10-13T06:47:36;98615.53;;;19.55;99.55
73171;BME280;61381;50.118;19.962;2023-10-13T06:52:37;98611.59;;;19.77;98.70
73171;BME280;61381;50.118;19.962;2023-10-13T06:57:39;98613.25;;;19.69;98.25
73171;BME280;61381;50.118;19.962;2023-10-13T07:02:40;98611.69;;;19.93;98.73
73171;BME280;61381;50.118;19.962;2023-10-13T07:07:41;98617.13;;;19.81;99.64
73171;BME280;61381;50.118;19.962;2023-10-13T07:12:43;98606.72;;;20.23;98.41
73171;BME280;61381;50.118;19.962;2023-10-13T07:17:44;98608.56;;;20.35;98.80
73171;BME280;61381;50.118;19.962;2023-10-13T07:22:45;98618.34;;;20.64;96.37
73171;BME280;61381;50.118;19.962;2023-10-13T07:27:47;98617.53;;;20.64;97.53
73171;BME280;61381;50.118;19.962;2023-10-13T07:32:48;98618.84;;;20.54;96.53
73171;BME280;61381;50.118;19.962;2023-10-13T07:37:49;98623.56;;;20.85;94.49
73171;BME280;61381;50.118;19.962;2023-10-13T07:42:51;98622.09;;;20.88;93.75
73171;BME280;61381;50.118;19.962;2023-10-13T07:47:52;98626.72;;;20.59;94.69
73171;BME280;61381;50.118;19.962;2023-10-13T07:52:53;98623.59;;;21.17;93.28
73171;BME280;61381;50.118;19.962;2023-10-13T07:57:55;98631.06;;;21.52;91.19
73171;BME280;61381;50.118;19.962;2023-10-13T08:02:57;98626.34;;;21.49;90.40
73171;BME280;61381;50.118;19.962;2023-10-13T08:07:58;98627.03;;;21.98;87.44
73171;BME280;61381;50.118;19.962;2023-10-13T08:13:00;98625.00;;;21.95;88.60
73171;BME280;61381;50.118;19.962;2023-10-13T08:18:01;98617.69;;;22.18;86.42
73171;BME280;61381;50.118;19.962;2023-10-13T08:23:02;98615.81;;;22.81;83.45
73171;BME280;61381;50.118;19.962;2023-10-13T08:28:05;98617.88;;;22.45;83.98
73171;BME280;61381;50.118;19.962;2023-10-13T08:33:05;98624.53;;;23.10;81.62
73171;BME280;61381;50.118;19.962;2023-10-13T08:38:06;98617.91;;;22.29;85.31
73171;BME280;61381;50.118;19.962;2023-10-13T08:43:10;98622.94;;;22.27;85.07
73171;BME280;61381;50.118;19.962;2023-10-13T08:48:11;98624.13;;;22.65;84.15
73171;BME280;61381;50.118;19.962;2023-10-13T08:53:13;98626.91;;;22.69;83.54
73171;BME280;61381;50.118;19.962;2023-10-13T08:58:16;98620.41;;;22.77;83.85
73171;BME280;61381;50.118;19.962;2023-10-13T09:03:18;98624.09;;;23.08;82.62
73171;BME280;61381;50.118;19.962;2023-10-13T09:08:24;98625.50;;;23.21;80.63
73171;BME280;61381;50.118;19.962;2023-10-13T09:13:35;98625.53;;;23.48;79.11
73171;BME280;61381;50.118;19.962;2023-10-13T09:18:36;98633.16;;;23.62;76.86
73171;BME280;61381;50.118;19.962;2023-10-13T09:23:45;98633.47;;;23.83;76.79
73171;BME280;61381;50.118;19.962;2023-10-13T09:28:47;98623.56;;;24.63;72.91
73171;BME280;61381;50.118;19.962;2023-10-13T09:33:48;98615.34;;;25.04;68.61
73171;BME280;61381;50.118;19.962;2023-10-13T09:38:49;98616.09;;;24.60;71.67
73171;BME280;61381;50.118;19.962;2023-10-13T09:43:51;98618.13;;;24.36;72.92
73171;BME280;61381;50.118;19.962;2023-10-13T09:48:57;98609.16;;;24.05;73.22
73171;BME280;61381;50.118;19.962;2023-10-13T09:54:04;98608.41;;;24.08;74.54
73171;BME280;61381;50.118;19.962;2023-10-13T09:59:10;98596.19;;;23.98;75.23
73171;BME280;61381;50.118;19.962;2023-10-13T10:04:14;98600.75;;;24.55;73.48
73171;BME280;61381;50.118;19.962;2023-10-13T10:09:17;98595.47;;;24.39;72.37
73171;BME280;61381;50.118;19.962;2023-10-13T10:14:28;98590.06;;;24.46;71.65
73171;BME280;61381;50.118;19.962;2023-10-13T10:19:47;98585.06;;;24.18;73.14
73171;BME280;61381;50.118;19.962;2023-10-13T10:24:56;98575.41;;;24.28;70.60
73171;BME280;61381;50.118;19.962;2023-10-13T10:29:59;98577.28;;;24.20;72.42
73171;BME280;61381;50.118;19.962;2023-10-13T10:35:07;98569.63;;;24.36;71.32
73171;BME280;61381;50.118;19.962;2023-10-13T10:40:09;98563.66;;;24.61;67.90
73171;BME280;61381;50.118;19.962;2023-10-13T10:45:12;98564.38;;;24.20;69.05
73171;BME280;61381;50.118;19.962;2023-10-13T10:50:12;98564.06;;;24.63;69.12
73171;BME280;61381;50.118;19.962;2023-10-13T10:55:19;98551.44;;;24.21;68.38
73171;BME280;61381;50.118;19.962;2023-10-13T11:00:21;98548.50;;;24.74;68.53
73171;BME280;61381;50.118;19.962;2023-10-13T11:05:23;98537.84;;;25.14;67.41
73171;BME280;61381;50.118;19.962;2023-10-13T11:10:23;98536.22;;;25.02;66.08
73171;BME280;61381;50.118;19.962;2023-10-13T11:15:26;98533.88;;;25.04;67.21
73171;BME280;61381;50.118;19.962;2023-10-13T11:20:27;98531.81;;;25.46;67.24
73171;BME280;61381;50.118;19.962;2023-10-13T11:25:30;98529.47;;;25.44;65.78
73171;BME280;61381;50.118;19.962;2023-10-13T11:30:33;98520.78;;;25.39;65.75
73171;BME280;61381;50.118;19.962;2023-10-13T11:35:34;98522.97;;;25.81;65.06
73171;BME280;61381;50.118;19.962;2023-10-13T11:40:35;98520.13;;;25.56;65.27
73171;BME280;61381;50.118;19.962;2023-10-13T11:45:38;98518.25;;;25.71;64.46
73171;BME280;61381;50.118;19.962;2023-10-13T11:50:40;98515.50;;;25.75;63.47
73171;BME280;61381;50.118;19.962;2023-10-13T11:55:41;98519.16;;;26.08;63.15
73171;BME280;61381;50.118;19.962;2023-10-13T12:00:43;98508.63;;;26.28;63.90
73171;BME280;61381;50.118;19.962;2023-10-13T12:05:44;98514.09;;;26.13;62.45
73171;BME280;61381;50.118;19.962;2023-10-13T12:10:45;98502.31;;;26.06;62.48
73171;BME280;61381;50.118;19.962;2023-10-13T12:15:47;98498.47;;;26.50;61.50
73171;BME280;61381;50.118;19.962;2023-10-13T12:20:48;98495.66;;;26.10;61.35
73171;BME280;61381;50.118;19.962;2023-10-13T12:25:49;98497.66;;;26.31;62.46
73171;BME280;61381;50.118;19.962;2023-10-13T12:30:51;98492.94;;;26.28;62.15
73171;BME280;61381;50.118;19.962;2023-10-13T12:35:56;98494.16;;;26.56;62.65
73171;BME280;61381;50.118;19.962;2023-10-13T12:40:57;98490.59;;;26.34;61.12
73171;BME280;61381;50.118;19.962;2023-10-13T12:45:59;98492.13;;;26.28;60.42
73171;BME280;61381;50.118;19.962;2023-10-13T12:51:00;98474.88;;;26.13;60.64
73171;BME280;61381;50.118;19.962;2023-10-13T12:56:01;98478.81;;;26.30;61.58
73171;BME280;61381;50.118;19.962;2023-10-13T13:01:03;98461.16;;;26.38;62.09
73171;BME280;61381;50.118;19.962;2023-10-13T13:06:04;98465.06;;;26.23;61.03
73171;BME280;61381;50.118;19.962;2023-10-13T13:11:05;98454.47;;;26.21;61.92
73171;BME280;61381;50.118;19.962;2023-10-13T13:16:07;98454.06;;;26.12;64.04
73171;BME280;61381;50.118;19.962;2023-10-13T13:21:08;98461.94;;;26.31;63.17
73171;BME280;61381;50.118;19.962;2023-10-13T13:26:09;98455.28;;;26.25;61.89
73171;BME280;61381;50.118;19.962;2023-10-13T13:31:11;98446.66;;;26.48;61.41
73171;BME280;61381;50.118;19.962;2023-10-13T13:36:12;98442.34;;;26.40;62.24
73171;BME280;61381;50.118;19.962;2023-10-13T13:41:14;98431.72;;;26.53;62.63
73171;BME280;61381;50.118;19.962;2023-10-13T13:46:17;98430.56;;;26.65;63.33
73171;BME280;61381;50.118;19.962;2023-10-13T13:51:18;98416.81;;;26.18;61.84
73171;BME280;61381;50.118;19.962;2023-10-13T13:56:19;98405.63;;;25.42;64.75
73171;BME280;61381;50.118;19.962;2023-10-13T14:01:21;98412.75;;;25.69;64.51
73171;BME280;61381;50.118;19.962;2023-10-13T14:06:23;98410.31;;;25.42;65.82
73171;BME280;61381;50.118;19.962;2023-10-13T14:11:27;98402.56;;;25.69;64.40
73171;BME280;61381;50.118;19.962;2023-10-13T14:16:30;98402.22;;;25.85;65.41
73171;BME280;61381;50.118;19.962;2023-10-13T14:21:31;98403.31;;;25.59;66.26
73171;BME280;61381;50.118;19.962;2023-10-13T14:26:32;98395.50;;;25.61;66.46
73171;BME280;61381;50.118;19.962;2023-10-13T14:31:35;98389.75;;;25.03;68.37
73171;BME280;61381;50.118;19.962;2023-10-13T14:36:36;98387.88;;;25.22;68.62
73171;BME280;61381;50.118;19.962;2023-10-13T14:41:37;98393.84;;;25.38;67.83
73171;BME280;61381;50.118;19.962;2023-10-13T14:46:39;98388.41;;;25.53;68.58
73171;BME280;61381;50.118;19.962;2023-10-13T14:51:40;98380.34;;;25.08;69.54
73171;BME280;61381;50.118;19.962;2023-10-13T14:56:42;98381.66;;;25.28;70.03
73171;BME280;61381;50.118;19.962;2023-10-13T15:01:44;98399.28;;;25.31;68.66
73171;BME280;61381;50.118;19.962;2023-10-13T15:06:45;98402.84;;;25.39;68.59
73171;BME280;61381;50.118;19.962;2023-10-13T15:11:46;98393.25;;;25.00;71.19
73171;BME280;61381;50.118;19.962;2023-10-13T15:16:48;98379.84;;;24.84;71.11
73171;BME280;61381;50.118;19.962;2023-10-13T15:21:49;98374.19;;;24.59;72.52
73171;BME280;61381;50.118;19.962;2023-10-13T15:26:50;98362.81;;;24.53;73.92
73171;BME280;61381;50.118;19.962;2023-10-13T15:31:52;98371.22;;;24.30;75.38
73171;BME280;61381;50.118;19.962;2023-10-13T15:36:54;98369.34;;;23.93;78.05
73171;BME280;61381;50.118;19.962;2023-10-13T15:41:56;98363.03;;;23.51;80.04
73171;BME280;61381;50.118;19.962;2023-10-13T15:46:58;98357.53;;;23.48;81.23
73171;BME280;61381;50.118;19.962;2023-10-13T15:51:59;98360.06;;;23.67;79.78
73171;BME280;61381;50.118;19.962;2023-10-13T15:57:00;98348.03;;;23.38;82.32
73171;BME280;61381;50.118;19.962;2023-10-13T16:02:02;98339.94;;;23.11;83.67
73171;BME280;61381;50.118;19.962;2023-10-13T16:07:03;98343.09;;;22.87;84.69
73171;BME280;61381;50.118;19.962;2023-10-13T16:12:04;98338.81;;;22.89;86.13
73171;BME280;61381;50.118;19.962;2023-10-13T16:17:06;98343.59;;;22.66;86.21
73171;BME280;61381;50.118;19.962;2023-10-13T16:22:07;98338.59;;;22.44;88.36
73171;BME280;61381;50.118;19.962;2023-10-13T16:27:08;98343.81;;;22.53;87.19
73171;BME280;61381;50.118;19.962;2023-10-13T16:32:11;98339.88;;;22.27;89.27
73171;BME280;61381;50.118;19.962;2023-10-13T16:37:11;98343.84;;;22.57;87.82
73171;BME280;61381;50.118;19.962;2023-10-13T16:42:12;98330.09;;;22.26;90.38
73171;BME280;61381;50.118;19.962;2023-10-13T16:47:15;98328.84;;;22.20;90.03
73171;BME280;61381;50.118;19.962;2023-10-13T16:52:16;98325.22;;;22.13;90.26
73171;BME280;61381;50.118;19.962;2023-10-13T16:57:17;98322.28;;;22.25;89.40
73171;BME280;61381;50.118;19.962;2023-10-13T17:02:19;98330.78;;;22.20;89.82
73171;BME280;61381;50.118;19.962;2023-10-13T17:07:20;98331.78;;;21.85;91.05
73171;BME280;61381;50.118;19.962;2023-10-13T17:12:21;98329.72;;;21.78;92.30
73171;BME280;61381;50.118;19.962;2023-10-13T17:17:23;98311.94;;;21.88;91.82
73171;BME280;61381;50.118;19.962;2023-10-13T17:22:24;98322.25;;;21.98;90.57
73171;BME280;61381;50.118;19.962;2023-10-13T17:27:25;98312.69;;;21.85;91.41
73171;BME280;61381;50.118;19.962;2023-10-13T17:32:27;98302.63;;;21.66;92.12
73171;BME280;61381;50.118;19.962;2023-10-13T17:37:28;98304.44;;;21.58;92.68
73171;BME280;61381;50.118;19.962;2023-10-13T17:42:29;98293.47;;;21.35;93.80
73171;BME280;61381;50.118;19.962;2023-10-13T17:47:31;98302.06;;;21.37;93.63
73171;BME280;61381;50.118;19.962;2023-10-13T17:52:32;98297.19;;;21.27;94.32
73171;BME280;61381;50.118;19.962;2023-10-13T17:57:34;98292.47;;;21.24;94.68
73171;BME280;61381;50.118;19.962;2023-10-13T18:02:36;98286.91;;;21.16;94.72
73171;BME280;61381;50.118;19.962;2023-10-13T18:07:37;98282.59;;;20.96;95.28
73171;BME280;61381;50.118;19.962;2023-10-13T18:12:38;98284.09;;;20.74;96.57
73171;BME280;61381;50.118;19.962;2023-10-13T18:17:40;98275.94;;;20.58;97.43
73171;BME280;61381;50.118;19.962;2023-10-13T18:22:41;98276.88;;;20.46;98.25
73171;BME280;61381;50.118;19.962;2023-10-13T18:27:43;98283.53;;;20.48;97.94
73171;BME280;61381;50.118;19.962;2023-10-13T18:32:45;98267.72;;;20.19;99.53
73171;BME280;61381;50.118;19.962;2023-10-13T18:37:46;98262.78;;;20.24;98.56
73171;BME280;61381;50.118;19.962;2023-10-13T18:42:48;98265.31;;;20.33;97.91
73171;BME280;61381;50.118;19.962;2023-10-13T18:47:50;98256.97;;;20.42;97.57
73171;BME280;61381;50.118;19.962;2023-10-13T18:52:51;98248.34;;;20.40;96.30
73171;BME280;61381;50.118;19.962;2023-10-13T18:57:52;98245.38;;;20.29;97.04
73171;BME280;61381;50.118;19.962;2023-10-13T19:02:54;98239.47;;;20.07;99.24
73171;BME280;61381;50.118;19.962;2023-10-13T19:07:55;98246.72;;;20.19;98.15
73171;BME280;61381;50.118;19.962;2023-10-13T19:12:56;98245.00;;;20.11;97.39
73171;BME280;61381;50.118;19.962;2023-10-13T19:17:58;98245.00;;;20.11;97.23
73171;BME280;61381;50.118;19.962;2023-10-13T19:22:59;98238.75;;;20.10;96.87
73171;BME280;61381;50.118;19.962;2023-10-13T19:28:00;98238.88;;;19.98;97.34
73171;BME280;61381;50.118;19.962;2023-10-13T19:33:03;98239.13;;;19.45;100.00
73171;BME280;61381;50.118;19.962;2023-10-13T19:38:04;98244.47;;;19.57;100.00
73171;BME280;61381;50.118;19.962;2023-10-13T19:43:05;98233.34;;;19.63;100.00
73171;BME280;61381;50.118;19.962;2023-10-13T19:48:08;98230.97;;;19.61;99.67
73171;BME280;61381;50.118;19.962;2023-10-13T19:53:09;98225.00;;;19.55;98.93
73171;BME280;61381;50.118;19.962;2023-10-13T19:58:10;98222.38;;;19.43;99.43
73171;BME280;61381;50.118;19.962;2023-10-13T20:03:13;98222.72;;;19.25;100.00
73171;BME280;61381;50.118;19.962;2023-10-13T20:08:14;98221.41;;;19.35;100.00
73171;BME280;61381;50.118;19.962;2023-10-13T20:13:15;98222.38;;;19.59;98.40
73171;BME280;61381;50.118;19.962;2023-10-13T20:18:17;98215.69;;;19.72;98.01
73171;BME280;61381;50.118;19.962;2023-10-13T20:23:18;98211.94;;;19.61;97.53
73171;BME280;61381;50.118;19.962;2023-10-13T20:28:19;98221.41;;;19.67;97.33
73171;BME280;61381;50.118;19.962;2023-10-13T20:33:21;98209.75;;;19.67;96.86
73171;BME280;61381;50.118;19.962;2023-10-13T20:38:23;98207.13;;;19.54;98.34
73171;BME280;61381;50.118;19.962;2023-10-13T20:43:24;98208.09;;;19.78;96.91
73171;BME280;61381;50.118;19.962;2023-10-13T20:48:26;98206.28;;;19.82;97.09
73171;BME280;61381;50.118;19.962;2023-10-13T20:53:27;98196.28;;;19.86;96.64
73171;BME280;61381;50.118;19.962;2023-10-13T20:58:28;98187.03;;;19.75;98.79
73171;BME280;61381;50.118;19.962;2023-10-13T21:03:30;98185.06;;;19.56;99.99
73171;BME280;61381;50.118;19.962;2023-10-13T21:08:31;98173.88;;;19.93;98.20
73171;BME280;61381;50.118;19.962;2023-10-13T21:13:32;98171.44;;;19.72;99.27
73171;BME280;61381;50.118;19.962;2023-10-13T21:18:35;98179.16;;;20.02;97.27
73171;BME280;61381;50.118;19.962;2023-10-13T21:23:36;98168.13;;;20.14;96.82
73171;BME280;61381;50.118;19.962;2023-10-13T21:28:37;98166.59;;;19.97;96.90
73171;BME280;61381;50.118;19.962;2023-10-13T21:33:39;98169.28;;;19.77;98.35
73171;BME280;61381;50.118;19.962;2023-10-13T21:38:40;98166.44;;;19.90;97.17
73171;BME280;61381;50.118;19.962;2023-10-13T21:43:42;98160.34;;;19.77;96.78
73171;BME280;61381;50.118;19.962;2023-10-13T21:48:44;98150.25;;;19.46;98.63
73171;BME280;61381;50.118;19.962;2023-10-13T21:53:46;98135.88;;;19.45;98.53
73171;BME280;61381;50.118;19.962;2023-10-13T21:58:47;98136.06;;;19.20;98.97
73171;BME280;61381;50.118;19.962;2023-10-13T22:03:50;98126.75;;;19.21;98.16
73171;BME280;61381;50.118;19.962;2023-10-13T22:08:52;98130.63;;;19.04;98.99
73171;BME280;61381;50.118;19.962;2023-10-13T22:13:53;98124.00;;;18.45;100.00
73171;BME280;61381;50.118;19.962;2023-10-13T22:18:55;98112.34;;;18.45;100.00
73171;BME280;61381;50.118;19.962;2023-10-13T22:23:56;98117.28;;;18.27;100.00
73171;BME280;61381;50.118;19.962;2023-10-13T22:28:57;98111.22;;;18.46;100.00
73171;BME280;61381;50.118;19.962;2023-10-13T22:33:59;98104.22;;;18.45;100.00
73171;BME280;61381;50.118;19.962;2023-10-13T22:39:00;98114.13;;;18.25;100.00
73171;BME280;61381;50.118;19.962;2023-10-13T22:44:01;98105.03;;;18.05;100.00
73171;BME280;61381;50.118;19.962;2023-10-13T22:49:03;98097.38;;;17.82;100.00
73171;BME280;61381;50.118;19.962;2023-10-13T22:54:04;98085.53;;;17.74;100.00
73171;BME280;61381;50.118;19.962;2023-10-13T22:59:05;98077.34;;;17.58;100.00
73171;BME280;61381;50.118;19.962;2023-10-13T23:04:08;98063.25;;;17.40;100.00
73171;BME280;61381;50.118;19.962;2023-10-13T23:09:08;98066.38;;;17.55;100.00
73171;BME280;61381;50.118;19.962;2023-10-13T23:14:09;98073.50;;;17.22;100.00
73171;BME280;61381;50.118;19.962;2023-10-13T23:19:11;98076.44;;;17.29;100.00
73171;BME280;61381;50.118;19.962;2023-10-13T23:24:13;98064.25;;;17.36;100.00
73171;BME280;61381;50.118;19.962;2023-10-13T23:29:13;98055.53;;;17.55;100.00
73171;BME280;61381;50.118;19.962;2023-10-13T23:34:16;98047.25;;;17.35;100.00
73171;BME280;61381;50.118;19.962;2023-10-13T23:39:16;98026.72;;;17.22;100.00
73171;BME280;61381;50.118;19.962;2023-10-13T23:44:17;98010.69;;;17.04;100.00
73171;BME280;61381;50.118;19.962;2023-10-13T23:49:19;98010.00;;;16.95;100.00
73171;BME280;61381;50.118;19.962;2023-10-13T23:54:21;98005.94;;;16.89;100.00
73171;BME280;61381;50.118;19.962;2023-10-13T23:59:21;97992.63;;;16.84;100.00
